Flight Track Log - Related Links

Times and Time Zones

All times are in EDT time to prevent confusion due to time zone crossing. See the ASH3745 flight status page for this flight to view local times or setup timezone preferences in your user account.

Time Position Orientation Groundspeed Altitude Reporting Facility
EDT Latitude Longitude Course Direction KTS MPH feet Rate Location/Type
Tue 09:08:18 AM 41.9500 -87.8333 170° South 212 244 3,300  Level Chicago TRACON
Tue 09:09:18 AM 41.8833 -87.8000 160° South 272 313 5,000 1,263 Climbing Chicago TRACON
Tue 09:10:00 AM 41.5665 -87.5790 153° Southeast  Level Estimated
Tue 09:10:50 AM 41.7711 -87.7844 174° South 276 318 6,500  Level Chicago Center
Tue 09:11:00 AM 41.4626 -87.4978 159° South  Level Estimated
Tue 09:11:52 AM 41.6958 -87.7550 164° South 288 331 9,700  Level Chicago Center
Tue 09:12:00 AM 41.3586 -87.4168 180° South  Level Estimated
Tue 09:12:54 AM 41.6217 -87.7064 154° Southeast 294 338 12,900  Level Chicago Center
Tue 09:13:00 AM 41.2622 -87.3420 170° South  Level Estimated
Tue 09:13:56 AM 41.5444 -87.6542 153° Southeast 307 353 15,000  Level Chicago Center
Tue 09:14:58 AM 41.4653 -87.6000 153° Southeast 316 364 15,000 1,210 Level Chicago Center
Tue 09:16:00 AM 41.3553 -87.5611 165° South 345 397 17,500 2,226 Climbing Chicago Center
Tue 09:17:02 AM 41.2578 -87.5433 172° South 351 404 19,600 2,032 Climbing Chicago Center
Tue 09:18:04 AM 41.1567 -87.5236 172° South 360 414 21,700 1,887 Climbing Chicago Center
Tue 09:19:06 AM 41.0525 -87.4944 168° South 375 432 23,500 1,776 Climbing Chicago Center
Tue 09:20:09 AM 40.9475 -87.4661 168° South 383 441 25,400 1,680 Climbing Chicago Center
Tue 09:21:11 AM 40.8392 -87.4389 169° South 392 451 27,000 1,645 Climbing Chicago Center
Tue 09:22:13 AM 40.7067 -87.4025 168° South 402 463 28,800 1,452 Climbing Chicago Center
Tue 09:23:15 AM 40.5956 -87.3744 169° South 407 468 30,000 1,161 Climbing Chicago Center
Tue 09:24:17 AM 40.4808 -87.3431 168° South 417 480 31,200 1,258 Climbing Chicago Center
Tue 09:25:19 AM 40.3694 -87.2958 162° South 420 483 32,600 1,258 Climbing Chicago Center
Tue 09:26:21 AM 40.2600 -87.2450 160° South 418 481 33,800 1,210 Climbing Chicago Center
Tue 09:27:23 AM 40.1278 -87.1822 160° South 421 484 35,100 1,189 Climbing Chicago Center
Tue 09:28:07 AM 40.0461 -87.1447 161° South 419 482 35,900 1,132 Climbing Indianapolis Center
Tue 09:29:09 AM 39.9400 -87.0783 154° Southeast 419 482 37,100 1,210 Climbing Indianapolis Center
Tue 09:30:11 AM 39.8461 -86.9983 147° Southeast 407 468 38,400 823 Climbing Indianapolis Center
Tue 09:31:13 AM 39.7531 -86.9194 147° Southeast 398 458 38,800 290 Climbing Indianapolis Center
Tue 09:32:15 AM 39.6569 -86.8397 147° Southeast 404 465 39,000 98 Climbing Indianapolis Center
Tue 09:33:16 AM 39.5567 -86.7581 148° Southeast 418 481 39,000  Level Indianapolis Center
Tue 09:34:18 AM 39.4531 -86.6706 147° Southeast 434 499 39,000  Level Indianapolis Center
Tue 09:35:20 AM 39.3478 -86.5847 148° Southeast 442 509 39,000  Level Indianapolis Center
Tue 09:36:22 AM 39.2414 -86.4961 147° Southeast 449 517 39,000  Level Indianapolis Center
Tue 09:37:24 AM 39.1144 -86.3917 147° Southeast 448 516 39,000  Level Indianapolis Center
Tue 09:38:26 AM 39.0086 -86.3050 148° Southeast 448 516 39,000  Level Indianapolis Center
Tue 09:39:28 AM 38.9031 -86.2181 147° Southeast 446 513 39,000  Level Indianapolis Center
Tue 09:40:30 AM 38.7967 -86.1300 147° Southeast 449 517 39,000  Level Indianapolis Center
Tue 09:41:31 AM 38.6903 -86.0442 148° Southeast 449 517 39,000  Level Indianapolis Center
Tue 09:42:33 AM 38.5839 -85.9561 147° Southeast 450 518 39,000  Level Indianapolis Center
Tue 09:43:35 AM 38.4783 -85.8711 148° Southeast 448 516 39,000  Level Indianapolis Center
Tue 09:44:37 AM 38.3731 -85.7850 147° Southeast 447 514 39,000  Level Indianapolis Center
Tue 09:45:39 AM 38.2639 -85.6994 148° Southeast 454 522 39,000  Level Indianapolis Center
Tue 09:46:41 AM 38.1344 -85.5958 148° Southeast 457 526 39,000  Level Indianapolis Center
Tue 09:47:43 AM 38.0275 -85.5086 147° Southeast 454 522 39,000  Level Indianapolis Center
Tue 09:48:45 AM 37.9189 -85.4231 148° Southeast 457 526 39,000  Level Indianapolis Center
Tue 09:49:47 AM 37.8103 -85.3378 148° Southeast 455 524 39,000  Level Indianapolis Center
Tue 09:50:49 AM 37.7033 -85.2508 147° Southeast 457 526 39,000  Level Indianapolis Center
Tue 09:51:51 AM 37.5928 -85.1667 149° Southeast 461 531 39,000  Level Indianapolis Center
Tue 09:52:53 AM 37.4653 -85.0661 148° Southeast 463 533 39,000  Level Indianapolis Center
Tue 09:53:55 AM 37.3561 -84.9811 148° Southeast 463 533 39,000  Level Indianapolis Center
Tue 09:54:57 AM 37.2458 -84.8942 148° Southeast 467 537 39,000  Level Indianapolis Center
Tue 09:55:59 AM 37.1406 -84.8003 145° Southeast 465 535 39,000 -194 Level Indianapolis Center
Tue 09:57:01 AM 37.0267 -84.6764 139° Southeast 469 540 38,600 -484 Descending Indianapolis Center
Tue 09:58:03 AM 36.9108 -84.5925 150° Southeast 484 557 38,000 -290 Descending Indianapolis Center
Tue 09:59:05 AM 36.7961 -84.5056 149° Southeast 478 550 38,000  Level Indianapolis Center
Tue 10:00:07 AM 36.6831 -84.4206 149° Southeast 475 547 38,000  Level Indianapolis Center
Tue 10:01:09 AM 36.5714 -84.3358 149° Southeast 472 543 38,000  Level Indianapolis Center
Tue 10:02:11 AM 36.4572 -84.2489 149° Southeast 476 548 38,000  Level Indianapolis Center
Tue 10:03:13 AM 36.3431 -84.1647 149° Southeast 475 547 38,000  Level Indianapolis Center
Tue 10:03:45 AM 36.2753 -84.1186 151° Southeast 474 545 38,000  Level Atlanta Center
Tue 10:04:45 AM 36.1647 -84.0336 148° Southeast 474 545 38,000  Level Atlanta Center
Tue 10:05:45 AM 36.0500 -83.9489 149° Southeast 469 540 38,000  Level Atlanta Center
Tue 10:06:45 AM 35.9350 -83.8644 149° Southeast 469 540 38,000  Level Atlanta Center
Tue 10:07:45 AM 35.8119 -83.7725 149° Southeast 469 540 38,000  Level Atlanta Center
Tue 10:08:45 AM 35.6947 -83.6883 150° Southeast 469 540 38,000  Level Atlanta Center
Tue 10:09:45 AM 35.5778 -83.6047 150° Southeast 475 547 38,000  Level Atlanta Center
Tue 10:10:45 AM 35.4647 -83.5186 148° Southeast 475 547 38,000  Level Atlanta Center
Tue 10:11:46 AM 35.3494 -83.4353 149° Southeast 480 552 38,000  Level Atlanta Center
Tue 10:12:45 AM 35.2303 -83.3522 150° Southeast 480 552 38,000  Level Atlanta Center
Tue 10:13:45 AM 35.1256 -83.2719 148° Southeast 485 558 38,000  Level Atlanta Center
Tue 10:14:45 AM 35.0122 -83.1892 149° Southeast 496 571 38,000 -350 Level Atlanta Center
Tue 10:15:45 AM 34.8928 -83.1069 151° Southeast 490 564 37,300 -750 Descending Atlanta Center
Tue 10:16:45 AM 34.7750 -83.0197 149° Southeast 500 575 36,500 -800 Descending Atlanta Center
Tue 10:17:45 AM 34.6450 -82.9278 150° Southeast 500 575 35,700 -750 Descending Atlanta Center
Tue 10:18:45 AM 34.5231 -82.8436 150° Southeast 494 568 35,000 -800 Descending Atlanta Center
Tue 10:19:45 AM 34.4033 -82.7597 150° Southeast 494 568 34,100 -942 Descending Atlanta Center
Tue 10:20:46 AM 34.2833 -82.6736 149° Southeast 494 568 33,100 -950 Descending Atlanta Center
Tue 10:21:45 AM 34.1867 -82.6075 150° Southeast 494 568 32,200 -1,008 Descending Atlanta Center
Tue 10:22:45 AM 34.0456 -82.5044 149° Southeast 494 568 31,100 -1,339 Descending Atlanta Center
Tue 10:23:46 AM 33.9233 -82.4242 151° Southeast 500 575 29,500 -2,100 Descending Atlanta Center
Tue 10:24:45 AM 33.8056 -82.3439 150° Southeast 492 566 26,900 -2,118 Descending Atlanta Center
Tue 10:25:45 AM 33.7042 -82.2708 149° Southeast 476 548 25,300 -1,550 Descending Atlanta Center
Tue 10:26:45 AM 33.5906 -82.1958 151° Southeast 467 537 23,800 -1,600 Descending Atlanta Center
Tue 10:27:45 AM 33.4744 -82.1186 151° Southeast 451 519 22,100 -1,600 Descending Atlanta Center
Tue 10:28:45 AM 33.3669 -82.0439 150° Southeast 451 519 20,600 -1,457 Descending Atlanta Center
Tue 10:30:38 AM 33.1794 -81.9122 150° Southeast 464 534 17,900 -1,422 Descending Jacksonville Center
Tue 10:31:38 AM 33.0828 -81.8439 149° Southeast 438 504 16,500 -1,450 Descending Jacksonville Center
Tue 10:32:38 AM 32.9819 -81.7758 150° Southeast 421 484 15,000 -1,500 Descending Jacksonville Center
Tue 10:33:38 AM 32.8833 -81.7103 151° Southeast 415 478 13,500 -1,500 Descending Jacksonville Center
Tue 10:34:38 AM 32.7908 -81.6472 150° Southeast 401 461 12,000 -1,250 Descending Jacksonville Center
Tue 10:35:38 AM 32.6983 -81.5867 151° Southeast 385 443 11,000 -500 Descending Jacksonville Center
Tue 10:36:38 AM 32.6081 -81.5264 151° Southeast 380 437 11,000 -300 Level Jacksonville Center
Tue 10:37:38 AM 32.5133 -81.4611 150° Southeast 380 437 10,400 -650 Descending Jacksonville Center
Tue 10:38:38 AM 32.4375 -81.4108 151° Southeast 319 367 9,700 -950 Descending Jacksonville Center
Tue 10:39:38 AM 32.3703 -81.3650 150° Southeast 289 333 8,500 -1,600 Descending Jacksonville Center
Tue 10:40:38 AM 32.3092 -81.3219 149° Southeast 283 326 6,500 -2,250 Descending Jacksonville Center
Tue 10:41:38 AM 32.2439 -81.2789 151° Southeast 277 319 4,000 -2,300 Descending Jacksonville Center
Tue 10:42:38 AM 32.2219 -81.1908 106° East 247 284 1,900 -2,100 Descending Jacksonville Center

Login

Don't have an account? Register now (free) for customized features, flight alerts, and more!